sensor_id;sensor_type;location;lat;lon;timestamp;pressure;altitude;pressure_sealevel;temperature
68510;BMP180;55512;50.102;19.958;2022-11-15T00:00:28;99013.20;;;6.10
68510;BMP180;55512;50.102;19.958;2022-11-15T00:02:55;99011.00;;;6.10
68510;BMP180;55512;50.102;19.958;2022-11-15T00:05:21;99008.40;;;6.10
68510;BMP180;55512;50.102;19.958;2022-11-15T00:07:47;99006.40;;;6.10
68510;BMP180;55512;50.102;19.958;2022-11-15T00:10:12;99007.40;;;6.10
68510;BMP180;55512;50.102;19.958;2022-11-15T00:12:38;99001.40;;;6.10
68510;BMP180;55512;50.102;19.958;2022-11-15T00:15:04;99008.80;;;6.10
68510;BMP180;55512;50.102;19.958;2022-11-15T00:17:30;99004.00;;;6.06
68510;BMP180;55512;50.102;19.958;2022-11-15T00:19:56;99001.60;;;6.06
68510;BMP180;55512;50.102;19.958;2022-11-15T00:22:21;99005.60;;;6.10
68510;BMP180;55512;50.102;19.958;2022-11-15T00:24:47;99001.80;;;6.10
68510;BMP180;55512;50.102;19.958;2022-11-15T00:27:13;98995.00;;;6.10
68510;BMP180;55512;50.102;19.958;2022-11-15T00:29:38;98994.40;;;6.10
68510;BMP180;55512;50.102;19.958;2022-11-15T00:32:11;98989.80;;;6.10
68510;BMP180;55512;50.102;19.958;2022-11-15T00:34:36;98988.00;;;6.08
68510;BMP180;55512;50.102;19.958;2022-11-15T00:37:01;98984.40;;;6.00
68510;BMP180;55512;50.102;19.958;2022-11-15T00:39:27;98980.00;;;6.00
68510;BMP180;55512;50.102;19.958;2022-11-15T00:41:53;98978.60;;;6.00
68510;BMP180;55512;50.102;19.958;2022-11-15T00:44:18;98976.60;;;6.00
68510;BMP180;55512;50.102;19.958;2022-11-15T00:46:43;98977.40;;;6.00
68510;BMP180;55512;50.102;19.958;2022-11-15T00:49:09;98972.80;;;6.00
68510;BMP180;55512;50.102;19.958;2022-11-15T00:51:34;98966.40;;;5.98
68510;BMP180;55512;50.102;19.958;2022-11-15T00:54:00;98966.80;;;5.90
68510;BMP180;55512;50.102;19.958;2022-11-15T00:56:25;98967.80;;;5.90
68510;BMP180;55512;50.102;19.958;2022-11-15T00:58:52;98967.00;;;5.90
68510;BMP180;55512;50.102;19.958;2022-11-15T01:01:18;98968.00;;;5.90
68510;BMP180;55512;50.102;19.958;2022-11-15T01:03:43;98965.20;;;5.88
68510;BMP180;55512;50.102;19.958;2022-11-15T01:06:10;98963.60;;;5.80
68510;BMP180;55512;50.102;19.958;2022-11-15T01:08:39;98960.20;;;5.80
68510;BMP180;55512;50.102;19.958;2022-11-15T01:11:12;98965.00;;;5.80
68510;BMP180;55512;50.102;19.958;2022-11-15T01:13:39;98961.20;;;5.80
68510;BMP180;55512;50.102;19.958;2022-11-15T01:16:17;98957.20;;;5.78
68510;BMP180;55512;50.102;19.958;2022-11-15T01:18:45;98957.00;;;5.80
68510;BMP180;55512;50.102;19.958;2022-11-15T01:21:15;98959.00;;;5.72
68510;BMP180;55512;50.102;19.958;2022-11-15T01:23:42;98958.80;;;5.70
68510;BMP180;55512;50.102;19.958;2022-11-15T01:26:12;98955.20;;;5.70
68510;BMP180;55512;50.102;19.958;2022-11-15T01:28:40;98955.40;;;5.60
68510;BMP180;55512;50.102;19.958;2022-11-15T01:31:15;98953.80;;;5.60
68510;BMP180;55512;50.102;19.958;2022-11-15T01:33:41;98957.00;;;5.60
68510;BMP180;55512;50.102;19.958;2022-11-15T01:36:12;98944.20;;;5.60
68510;BMP180;55512;50.102;19.958;2022-11-15T01:38:38;98951.60;;;5.60
68510;BMP180;55512;50.102;19.958;2022-11-15T01:41:04;98946.40;;;5.60
68510;BMP180;55512;50.102;19.958;2022-11-15T01:43:34;98947.60;;;5.54
68510;BMP180;55512;50.102;19.958;2022-11-15T01:48:50;98950.00;;;5.50
68510;BMP180;55512;50.102;19.958;2022-11-15T01:51:20;98951.20;;;5.50
68510;BMP180;55512;50.102;19.958;2022-11-15T01:53:51;98949.80;;;5.50
68510;BMP180;55512;50.102;19.958;2022-11-15T01:56:25;98947.00;;;5.50
68510;BMP180;55512;50.102;19.958;2022-11-15T01:58:55;98940.40;;;5.50
68510;BMP180;55512;50.102;19.958;2022-11-15T02:01:24;98930.80;;;5.50
68510;BMP180;55512;50.102;19.958;2022-11-15T02:03:59;98929.60;;;5.40
68510;BMP180;55512;50.102;19.958;2022-11-15T02:06:25;98925.00;;;5.40
68510;BMP180;55512;50.102;19.958;2022-11-15T02:08:51;98924.20;;;5.40
68510;BMP180;55512;50.102;19.958;2022-11-15T02:11:17;98923.60;;;5.40
68510;BMP180;55512;50.102;19.958;2022-11-15T02:13:43;98917.40;;;5.40
68510;BMP180;55512;50.102;19.958;2022-11-15T02:34:56;98904.00;;;5.40
68510;BMP180;55512;50.102;19.958;2022-11-15T02:37:46;98905.00;;;5.42
68510;BMP180;55512;50.102;19.958;2022-11-15T02:40:29;98897.80;;;5.40
68510;BMP180;55512;50.102;19.958;2022-11-15T02:43:08;98895.80;;;5.30
68510;BMP180;55512;50.102;19.958;2022-11-15T02:46:04;98894.80;;;5.40
68510;BMP180;55512;50.102;19.958;2022-11-15T02:48:32;98893.80;;;5.40
68510;BMP180;55512;50.102;19.958;2022-11-15T02:51:00;98898.00;;;5.40
68510;BMP180;55512;50.102;19.958;2022-11-15T02:53:27;98897.20;;;5.46
68510;BMP180;55512;50.102;19.958;2022-11-15T02:55:55;98889.80;;;5.48
68510;BMP180;55512;50.102;19.958;2022-11-15T02:58:42;98887.20;;;5.50
68510;BMP180;55512;50.102;19.958;2022-11-15T03:01:48;98888.80;;;5.50
68510;BMP180;55512;50.102;19.958;2022-11-15T03:07:38;98876.60;;;5.50
68510;BMP180;55512;50.102;19.958;2022-11-15T03:10:27;98869.80;;;5.50
68510;BMP180;55512;50.102;19.958;2022-11-15T03:13:27;98871.00;;;5.52
68510;BMP180;55512;50.102;19.958;2022-11-15T03:16:19;98875.00;;;5.54
68510;BMP180;55512;50.102;19.958;2022-11-15T03:18:55;98875.60;;;5.52
68510;BMP180;55512;50.102;19.958;2022-11-15T03:21:23;98876.60;;;5.60
68510;BMP180;55512;50.102;19.958;2022-11-15T03:23:51;98871.20;;;5.60
68510;BMP180;55512;50.102;19.958;2022-11-15T03:26:22;98870.40;;;5.60
68510;BMP180;55512;50.102;19.958;2022-11-15T03:29:08;98871.80;;;5.60
68510;BMP180;55512;50.102;19.958;2022-11-15T03:31:39;98864.00;;;5.60
68510;BMP180;55512;50.102;19.958;2022-11-15T03:36:54;98859.00;;;5.60
68510;BMP180;55512;50.102;19.958;2022-11-15T03:39:21;98852.20;;;5.60
68510;BMP180;55512;50.102;19.958;2022-11-15T03:44:47;98850.00;;;5.60
68510;BMP180;55512;50.102;19.958;2022-11-15T03:49:52;98843.00;;;5.60
68510;BMP180;55512;50.102;19.958;2022-11-15T03:52:20;98839.00;;;5.60
68510;BMP180;55512;50.102;19.958;2022-11-15T03:54:54;98828.60;;;5.60
68510;BMP180;55512;50.102;19.958;2022-11-15T03:57:21;98834.00;;;5.60
68510;BMP180;55512;50.102;19.958;2022-11-15T03:59:46;98827.60;;;5.60
68510;BMP180;55512;50.102;19.958;2022-11-15T04:02:13;98820.60;;;5.58
68510;BMP180;55512;50.102;19.958;2022-11-15T04:04:38;98823.60;;;5.50
68510;BMP180;55512;50.102;19.958;2022-11-15T04:07:04;98820.60;;;5.50
68510;BMP180;55512;50.102;19.958;2022-11-15T04:09:30;98814.80;;;5.52
68510;BMP180;55512;50.102;19.958;2022-11-15T04:11:55;98810.00;;;5.50
68510;BMP180;55512;50.102;19.958;2022-11-15T04:14:21;98802.00;;;5.50
68510;BMP180;55512;50.102;19.958;2022-11-15T04:16:46;98799.80;;;5.50
68510;BMP180;55512;50.102;19.958;2022-11-15T04:19:12;98797.60;;;5.50
68510;BMP180;55512;50.102;19.958;2022-11-15T04:21:56;98796.20;;;5.50
68510;BMP180;55512;50.102;19.958;2022-11-15T04:24:40;98796.60;;;5.50
68510;BMP180;55512;50.102;19.958;2022-11-15T04:27:05;98784.00;;;5.50
68510;BMP180;55512;50.102;19.958;2022-11-15T04:29:31;98782.20;;;5.50
68510;BMP180;55512;50.102;19.958;2022-11-15T04:32:00;98775.80;;;5.50
68510;BMP180;55512;50.102;19.958;2022-11-15T04:34:25;98777.00;;;5.50
68510;BMP180;55512;50.102;19.958;2022-11-15T04:36:51;98776.00;;;5.42
68510;BMP180;55512;50.102;19.958;2022-11-15T04:39:35;98771.00;;;5.42
68510;BMP180;55512;50.102;19.958;2022-11-15T04:42:00;98768.80;;;5.48
68510;BMP180;55512;50.102;19.958;2022-11-15T04:44:25;98768.40;;;5.46
68510;BMP180;55512;50.102;19.958;2022-11-15T04:46:51;98765.40;;;5.40
68510;BMP180;55512;50.102;19.958;2022-11-15T04:49:16;98761.40;;;5.40
68510;BMP180;55512;50.102;19.958;2022-11-15T04:51:42;98760.00;;;5.40
68510;BMP180;55512;50.102;19.958;2022-11-15T04:54:07;98760.20;;;5.36
68510;BMP180;55512;50.102;19.958;2022-11-15T04:56:33;98757.60;;;5.30
68510;BMP180;55512;50.102;19.958;2022-11-15T04:58:58;98757.40;;;5.30
68510;BMP180;55512;50.102;19.958;2022-11-15T05:01:24;98756.60;;;5.30
68510;BMP180;55512;50.102;19.958;2022-11-15T05:03:49;98755.20;;;5.30
68510;BMP180;55512;50.102;19.958;2022-11-15T05:06:33;98745.00;;;5.30
68510;BMP180;55512;50.102;19.958;2022-11-15T05:08:58;98743.60;;;5.20
68510;BMP180;55512;50.102;19.958;2022-11-15T05:11:24;98740.60;;;5.20
68510;BMP180;55512;50.102;19.958;2022-11-15T05:13:50;98742.40;;;5.20
68510;BMP180;55512;50.102;19.958;2022-11-15T05:16:16;98735.80;;;5.20
68510;BMP180;55512;50.102;19.958;2022-11-15T05:18:41;98739.00;;;5.20
68510;BMP180;55512;50.102;19.958;2022-11-15T05:21:11;98730.20;;;5.20
68510;BMP180;55512;50.102;19.958;2022-11-15T05:23:38;98732.60;;;5.20
68510;BMP180;55512;50.102;19.958;2022-11-15T05:26:06;98734.60;;;5.20
68510;BMP180;55512;50.102;19.958;2022-11-15T05:28:33;98736.20;;;5.12
68510;BMP180;55512;50.102;19.958;2022-11-15T05:31:13;98730.40;;;5.10
68510;BMP180;55512;50.102;19.958;2022-11-15T05:33:41;98724.80;;;5.10
68510;BMP180;55512;50.102;19.958;2022-11-15T05:36:16;98724.20;;;5.10
68510;BMP180;55512;50.102;19.958;2022-11-15T05:38:45;98724.80;;;5.10
68510;BMP180;55512;50.102;19.958;2022-11-15T05:41:13;98721.00;;;5.06
68510;BMP180;55512;50.102;19.958;2022-11-15T05:43:42;98727.40;;;5.00
68510;BMP180;55512;50.102;19.958;2022-11-15T05:46:09;98723.80;;;5.00
68510;BMP180;55512;50.102;19.958;2022-11-15T05:48:37;98727.20;;;5.00
68510;BMP180;55512;50.102;19.958;2022-11-15T05:51:07;98722.40;;;4.92
68510;BMP180;55512;50.102;19.958;2022-11-15T05:53:33;98726.60;;;4.90
68510;BMP180;55512;50.102;19.958;2022-11-15T05:56:00;98730.60;;;4.90
68510;BMP180;55512;50.102;19.958;2022-11-15T05:58:25;98730.60;;;4.90
68510;BMP180;55512;50.102;19.958;2022-11-15T06:00:51;98730.40;;;4.90
68510;BMP180;55512;50.102;19.958;2022-11-15T06:03:16;98728.60;;;4.90
68510;BMP180;55512;50.102;19.958;2022-11-15T06:05:42;98722.40;;;4.88
68510;BMP180;55512;50.102;19.958;2022-11-15T06:08:07;98722.40;;;4.86
68510;BMP180;55512;50.102;19.958;2022-11-15T06:10:33;98716.00;;;4.80
68510;BMP180;55512;50.102;19.958;2022-11-15T06:13:04;98711.80;;;4.82
68510;BMP180;55512;50.102;19.958;2022-11-15T06:15:29;98704.20;;;4.80
68510;BMP180;55512;50.102;19.958;2022-11-15T06:17:57;98712.40;;;4.88
68510;BMP180;55512;50.102;19.958;2022-11-15T06:20:25;98711.40;;;4.88
68510;BMP180;55512;50.102;19.958;2022-11-15T06:22:50;98702.40;;;4.86
68510;BMP180;55512;50.102;19.958;2022-11-15T06:25:16;98701.40;;;4.88
68510;BMP180;55512;50.102;19.958;2022-11-15T06:27:41;98704.80;;;4.90
68510;BMP180;55512;50.102;19.958;2022-11-15T06:30:07;98704.20;;;4.80
68510;BMP180;55512;50.102;19.958;2022-11-15T06:32:33;98708.80;;;4.84
68510;BMP180;55512;50.102;19.958;2022-11-15T06:34:58;98711.00;;;4.90
68510;BMP180;55512;50.102;19.958;2022-11-15T06:37:24;98708.20;;;4.90
68510;BMP180;55512;50.102;19.958;2022-11-15T06:39:49;98711.40;;;4.90
68510;BMP180;55512;50.102;19.958;2022-11-15T06:42:15;98712.40;;;4.90
68510;BMP180;55512;50.102;19.958;2022-11-15T06:44:40;98713.60;;;4.90
68510;BMP180;55512;50.102;19.958;2022-11-15T06:47:06;98707.80;;;4.90
68510;BMP180;55512;50.102;19.958;2022-11-15T06:49:31;98711.80;;;4.88
68510;BMP180;55512;50.102;19.958;2022-11-15T06:51:57;98716.80;;;4.86
68510;BMP180;55512;50.102;19.958;2022-11-15T06:54:22;98718.60;;;4.90
68510;BMP180;55512;50.102;19.958;2022-11-15T06:56:48;98714.40;;;4.90
68510;BMP180;55512;50.102;19.958;2022-11-15T06:59:13;98715.20;;;4.90
68510;BMP180;55512;50.102;19.958;2022-11-15T07:01:38;98715.80;;;4.90
68510;BMP180;55512;50.102;19.958;2022-11-15T07:04:04;98710.80;;;4.90
68510;BMP180;55512;50.102;19.958;2022-11-15T07:06:29;98708.00;;;4.98
68510;BMP180;55512;50.102;19.958;2022-11-15T07:08:55;98702.20;;;5.00
68510;BMP180;55512;50.102;19.958;2022-11-15T07:11:20;98707.20;;;5.00
68510;BMP180;55512;50.102;19.958;2022-11-15T07:13:46;98718.60;;;5.00
68510;BMP180;55512;50.102;19.958;2022-11-15T07:16:11;98718.60;;;5.00
68510;BMP180;55512;50.102;19.958;2022-11-15T07:18:39;98711.20;;;5.00
68510;BMP180;55512;50.102;19.958;2022-11-15T07:21:08;98716.80;;;5.00
68510;BMP180;55512;50.102;19.958;2022-11-15T07:23:39;98713.80;;;5.08
68510;BMP180;55512;50.102;19.958;2022-11-15T07:26:06;98709.00;;;5.00
68510;BMP180;55512;50.102;19.958;2022-11-15T07:28:32;98704.40;;;5.06
68510;BMP180;55512;50.102;19.958;2022-11-15T07:31:02;98704.60;;;5.00
68510;BMP180;55512;50.102;19.958;2022-11-15T07:33:28;98698.80;;;5.00
68510;BMP180;55512;50.102;19.958;2022-11-15T07:35:53;98698.00;;;4.98
68510;BMP180;55512;50.102;19.958;2022-11-15T07:38:18;98698.60;;;4.90
68510;BMP180;55512;50.102;19.958;2022-11-15T07:40:45;98689.20;;;4.90
68510;BMP180;55512;50.102;19.958;2022-11-15T07:43:12;98691.80;;;4.90
68510;BMP180;55512;50.102;19.958;2022-11-15T07:45:43;98694.20;;;4.90
68510;BMP180;55512;50.102;19.958;2022-11-15T07:48:09;98695.40;;;4.90
68510;BMP180;55512;50.102;19.958;2022-11-15T07:50:35;98692.20;;;4.90
68510;BMP180;55512;50.102;19.958;2022-11-15T07:53:00;98700.40;;;5.00
68510;BMP180;55512;50.102;19.958;2022-11-15T07:55:27;98697.60;;;5.00
68510;BMP180;55512;50.102;19.958;2022-11-15T07:58:05;98690.60;;;5.00
68510;BMP180;55512;50.102;19.958;2022-11-15T08:00:32;98688.60;;;5.10
68510;BMP180;55512;50.102;19.958;2022-11-15T08:03:06;98685.40;;;5.10
68510;BMP180;55512;50.102;19.958;2022-11-15T08:05:33;98685.60;;;5.10
68510;BMP180;55512;50.102;19.958;2022-11-15T08:07:59;98685.40;;;5.20
68510;BMP180;55512;50.102;19.958;2022-11-15T08:10:26;98678.80;;;5.20
68510;BMP180;55512;50.102;19.958;2022-11-15T08:13:00;98674.60;;;5.20
68510;BMP180;55512;50.102;19.958;2022-11-15T08:15:27;98676.00;;;5.10
68510;BMP180;55512;50.102;19.958;2022-11-15T08:17:58;98672.00;;;5.10
68510;BMP180;55512;50.102;19.958;2022-11-15T08:20:27;98664.40;;;5.10
68510;BMP180;55512;50.102;19.958;2022-11-15T08:22:56;98667.20;;;5.10
68510;BMP180;55512;50.102;19.958;2022-11-15T08:25:23;98668.60;;;5.10
68510;BMP180;55512;50.102;19.958;2022-11-15T08:27:57;98667.40;;;5.10
68510;BMP180;55512;50.102;19.958;2022-11-15T08:30:23;98673.60;;;5.10
68510;BMP180;55512;50.102;19.958;2022-11-15T08:32:51;98668.40;;;5.10
68510;BMP180;55512;50.102;19.958;2022-11-15T08:35:18;98663.60;;;5.14
68510;BMP180;55512;50.102;19.958;2022-11-15T08:37:44;98665.80;;;5.20
68510;BMP180;55512;50.102;19.958;2022-11-15T08:40:10;98664.60;;;5.20
68510;BMP180;55512;50.102;19.958;2022-11-15T08:42:36;98669.40;;;5.30
68510;BMP180;55512;50.102;19.958;2022-11-15T08:45:03;98666.40;;;5.40
68510;BMP180;55512;50.102;19.958;2022-11-15T08:47:29;98666.20;;;5.40
68510;BMP180;55512;50.102;19.958;2022-11-15T08:49:55;98664.60;;;5.50
68510;BMP180;55512;50.102;19.958;2022-11-15T08:52:20;98663.60;;;5.50
68510;BMP180;55512;50.102;19.958;2022-11-15T08:54:46;98669.80;;;5.60
68510;BMP180;55512;50.102;19.958;2022-11-15T08:57:12;98670.80;;;5.70
68510;BMP180;55512;50.102;19.958;2022-11-15T08:59:38;98668.80;;;5.80
68510;BMP180;55512;50.102;19.958;2022-11-15T09:02:05;98667.40;;;5.90
68510;BMP180;55512;50.102;19.958;2022-11-15T09:04:31;98664.20;;;6.00
68510;BMP180;55512;50.102;19.958;2022-11-15T09:06:56;98665.60;;;6.06
68510;BMP180;55512;50.102;19.958;2022-11-15T09:09:22;98663.40;;;6.16
68510;BMP180;55512;50.102;19.958;2022-11-15T09:11:47;98658.60;;;6.30
68510;BMP180;55512;50.102;19.958;2022-11-15T09:14:14;98658.20;;;6.32
68510;BMP180;55512;50.102;19.958;2022-11-15T09:16:40;98657.00;;;6.40
68510;BMP180;55512;50.102;19.958;2022-11-15T09:19:06;98652.80;;;6.50
68510;BMP180;55512;50.102;19.958;2022-11-15T09:21:32;98652.80;;;6.50
68510;BMP180;55512;50.102;19.958;2022-11-15T09:23:57;98650.40;;;6.60
68510;BMP180;55512;50.102;19.958;2022-11-15T09:26:23;98651.80;;;6.70
68510;BMP180;55512;50.102;19.958;2022-11-15T09:28:48;98649.00;;;6.80
68510;BMP180;55512;50.102;19.958;2022-11-15T09:31:15;98641.20;;;6.78
68510;BMP180;55512;50.102;19.958;2022-11-15T09:33:44;98646.20;;;6.80
68510;BMP180;55512;50.102;19.958;2022-11-15T09:36:11;98642.60;;;6.90
68510;BMP180;55512;50.102;19.958;2022-11-15T09:38:37;98639.80;;;6.92
68510;BMP180;55512;50.102;19.958;2022-11-15T09:47:46;98639.20;;;7.12
68510;BMP180;55512;50.102;19.958;2022-11-15T09:50:19;98638.00;;;7.20
68510;BMP180;55512;50.102;19.958;2022-11-15T09:52:48;98633.80;;;7.28
68510;BMP180;55512;50.102;19.958;2022-11-15T09:55:14;98636.60;;;7.30
68510;BMP180;55512;50.102;19.958;2022-11-15T09:58:25;98634.00;;;7.40
68510;BMP180;55512;50.102;19.958;2022-11-15T10:00:52;98631.60;;;7.40
68510;BMP180;55512;50.102;19.958;2022-11-15T10:03:34;98626.80;;;7.50
68510;BMP180;55512;50.102;19.958;2022-11-15T10:06:04;98623.40;;;7.54
68510;BMP180;55512;50.102;19.958;2022-11-15T10:11:15;98609.00;;;7.60
68510;BMP180;55512;50.102;19.958;2022-11-15T10:13:46;98606.80;;;7.60
68510;BMP180;55512;50.102;19.958;2022-11-15T10:16:47;98604.40;;;7.62
68510;BMP180;55512;50.102;19.958;2022-11-15T10:25:09;98594.00;;;7.70
68510;BMP180;55512;50.102;19.958;2022-11-15T10:27:39;98593.20;;;7.70
68510;BMP180;55512;50.102;19.958;2022-11-15T10:30:15;98589.00;;;7.80
68510;BMP180;55512;50.102;19.958;2022-11-15T10:32:43;98584.80;;;7.80
68510;BMP180;55512;50.102;19.958;2022-11-15T10:35:28;98590.60;;;7.86
68510;BMP180;55512;50.102;19.958;2022-11-15T10:38:11;98576.80;;;7.90
68510;BMP180;55512;50.102;19.958;2022-11-15T10:40:39;98570.80;;;7.90
68510;BMP180;55512;50.102;19.958;2022-11-15T10:45:40;98559.20;;;8.00
68510;BMP180;55512;50.102;19.958;2022-11-15T10:50:39;98553.80;;;8.10
68510;BMP180;55512;50.102;19.958;2022-11-15T10:53:28;98549.60;;;8.10
68510;BMP180;55512;50.102;19.958;2022-11-15T10:56:02;98547.40;;;8.20
68510;BMP180;55512;50.102;19.958;2022-11-15T10:58:39;98542.00;;;8.30
68510;BMP180;55512;50.102;19.958;2022-11-15T11:03:43;98531.80;;;8.38
68510;BMP180;55512;50.102;19.958;2022-11-15T11:06:17;98522.60;;;8.40
68510;BMP180;55512;50.102;19.958;2022-11-15T11:09:05;98524.00;;;8.48
68510;BMP180;55512;50.102;19.958;2022-11-15T11:11:49;98521.80;;;8.50
68510;BMP180;55512;50.102;19.958;2022-11-15T11:14:31;98517.60;;;8.60
68510;BMP180;55512;50.102;19.958;2022-11-15T11:29:20;98507.60;;;8.90
68510;BMP180;55512;50.102;19.958;2022-11-15T11:32:04;98507.40;;;9.00
68510;BMP180;55512;50.102;19.958;2022-11-15T11:37:47;98505.60;;;9.16
68510;BMP180;55512;50.102;19.958;2022-11-15T11:41:03;98500.20;;;9.22
68510;BMP180;55512;50.102;19.958;2022-11-15T11:49:15;98492.00;;;9.50
68510;BMP180;55512;50.102;19.958;2022-11-15T11:51:53;98489.00;;;9.58
68510;BMP180;55512;50.102;19.958;2022-11-15T11:54:46;98484.60;;;9.70
68510;BMP180;55512;50.102;19.958;2022-11-15T12:00:23;98477.80;;;9.90
68510;BMP180;55512;50.102;19.958;2022-11-15T12:03:32;98470.60;;;10.00
68510;BMP180;55512;50.102;19.958;2022-11-15T12:06:11;98467.20;;;10.10
68510;BMP180;55512;50.102;19.958;2022-11-15T12:14:45;98465.20;;;10.50
68510;BMP180;55512;50.102;19.958;2022-11-15T12:17:13;98463.20;;;10.60
68510;BMP180;55512;50.102;19.958;2022-11-15T12:19:39;98463.40;;;10.70
68510;BMP180;55512;50.102;19.958;2022-11-15T12:22:25;98464.20;;;10.80
68510;BMP180;55512;50.102;19.958;2022-11-15T12:25:00;98460.80;;;10.80
68510;BMP180;55512;50.102;19.958;2022-11-15T12:30:25;98454.60;;;10.90
68510;BMP180;55512;50.102;19.958;2022-11-15T12:32:58;98457.20;;;11.00
68510;BMP180;55512;50.102;19.958;2022-11-15T12:37:54;98451.40;;;11.10
68510;BMP180;55512;50.102;19.958;2022-11-15T12:40:39;98455.20;;;11.10
68510;BMP180;55512;50.102;19.958;2022-11-15T12:43:42;98446.20;;;11.10
68510;BMP180;55512;50.102;19.958;2022-11-15T12:48:52;98441.80;;;11.10
68510;BMP180;55512;50.102;19.958;2022-11-15T12:51:23;98438.60;;;11.10
68510;BMP180;55512;50.102;19.958;2022-11-15T12:59:54;98430.20;;;11.06
68510;BMP180;55512;50.102;19.958;2022-11-15T13:17:56;98415.00;;;10.90
68510;BMP180;55512;50.102;19.958;2022-11-15T13:20:26;98414.40;;;10.88
68510;BMP180;55512;50.102;19.958;2022-11-15T13:23:09;98415.40;;;10.80
68510;BMP180;55512;50.102;19.958;2022-11-15T13:30:55;98403.60;;;10.78
68510;BMP180;55512;50.102;19.958;2022-11-15T13:33:36;98409.40;;;10.70
68510;BMP180;55512;50.102;19.958;2022-11-15T13:36:09;98411.20;;;10.70
68510;BMP180;55512;50.102;19.958;2022-11-15T13:38:40;98406.20;;;10.70
68510;BMP180;55512;50.102;19.958;2022-11-15T13:41:22;98402.60;;;10.70
68510;BMP180;55512;50.102;19.958;2022-11-15T13:43:52;98394.20;;;10.70
68510;BMP180;55512;50.102;19.958;2022-11-15T13:46:30;98395.40;;;10.70
68510;BMP180;55512;50.102;19.958;2022-11-15T13:49:00;98392.60;;;10.66
68510;BMP180;55512;50.102;19.958;2022-11-15T13:51:50;98389.20;;;10.60
68510;BMP180;55512;50.102;19.958;2022-11-15T13:57:21;98376.60;;;10.58
68510;BMP180;55512;50.102;19.958;2022-11-15T13:59:58;98376.60;;;10.54
68510;BMP180;55512;50.102;19.958;2022-11-15T14:02:30;98373.80;;;10.50
68510;BMP180;55512;50.102;19.958;2022-11-15T14:05:03;98369.00;;;10.50
68510;BMP180;55512;50.102;19.958;2022-11-15T14:07:30;98371.20;;;10.50
68510;BMP180;55512;50.102;19.958;2022-11-15T14:09:56;98370.00;;;10.42
68510;BMP180;55512;50.102;19.958;2022-11-15T14:12:34;98371.80;;;10.40
68510;BMP180;55512;50.102;19.958;2022-11-15T14:15:37;98373.20;;;10.38
68510;BMP180;55512;50.102;19.958;2022-11-15T14:18:05;98369.40;;;10.34
68510;BMP180;55512;50.102;19.958;2022-11-15T14:20:39;98368.80;;;10.30
68510;BMP180;55512;50.102;19.958;2022-11-15T14:23:24;98365.20;;;10.30
68510;BMP180;55512;50.102;19.958;2022-11-15T14:25:58;98364.80;;;10.30
68510;BMP180;55512;50.102;19.958;2022-11-15T14:30:52;98348.40;;;10.20
68510;BMP180;55512;50.102;19.958;2022-11-15T14:35:56;98354.40;;;10.20
68510;BMP180;55512;50.102;19.958;2022-11-15T14:38:24;98347.00;;;10.20
68510;BMP180;55512;50.102;19.958;2022-11-15T14:40:50;98344.60;;;10.20
68510;BMP180;55512;50.102;19.958;2022-11-15T14:43:15;98341.60;;;10.10
68510;BMP180;55512;50.102;19.958;2022-11-15T14:45:42;98344.80;;;10.10
68510;BMP180;55512;50.102;19.958;2022-11-15T14:48:09;98345.40;;;10.10
68510;BMP180;55512;50.102;19.958;2022-11-15T14:50:35;98340.20;;;10.10
68510;BMP180;55512;50.102;19.958;2022-11-15T14:53:01;98336.60;;;10.04
68510;BMP180;55512;50.102;19.958;2022-11-15T14:55:30;98337.20;;;10.00
68510;BMP180;55512;50.102;19.958;2022-11-15T14:57:58;98332.80;;;10.00
68510;BMP180;55512;50.102;19.958;2022-11-15T15:00:24;98335.80;;;10.00
68510;BMP180;55512;50.102;19.958;2022-11-15T15:02:53;98332.80;;;10.00
68510;BMP180;55512;50.102;19.958;2022-11-15T15:05:33;98327.80;;;10.00
68510;BMP180;55512;50.102;19.958;2022-11-15T15:07:59;98323.40;;;10.00
68510;BMP180;55512;50.102;19.958;2022-11-15T15:10:34;98318.20;;;10.00
68510;BMP180;55512;50.102;19.958;2022-11-15T15:13:00;98321.60;;;10.00
68510;BMP180;55512;50.102;19.958;2022-11-15T15:15:37;98320.40;;;10.00
68510;BMP180;55512;50.102;19.958;2022-11-15T15:18:04;98324.80;;;9.98
68510;BMP180;55512;50.102;19.958;2022-11-15T15:20:31;98316.80;;;9.98
68510;BMP180;55512;50.102;19.958;2022-11-15T15:22:57;98316.00;;;9.98
68510;BMP180;55512;50.102;19.958;2022-11-15T15:25:30;98315.80;;;9.96
68510;BMP180;55512;50.102;19.958;2022-11-15T15:27:57;98317.80;;;9.96
68510;BMP180;55512;50.102;19.958;2022-11-15T15:30:24;98312.60;;;9.90
68510;BMP180;55512;50.102;19.958;2022-11-15T15:32:49;98313.00;;;9.90
68510;BMP180;55512;50.102;19.958;2022-11-15T15:35:16;98311.40;;;9.90
68510;BMP180;55512;50.102;19.958;2022-11-15T15:37:44;98306.40;;;9.90
68510;BMP180;55512;50.102;19.958;2022-11-15T15:40:20;98303.60;;;9.90
68510;BMP180;55512;50.102;19.958;2022-11-15T15:42:46;98305.80;;;9.90
68510;BMP180;55512;50.102;19.958;2022-11-15T15:45:12;98303.20;;;9.90
68510;BMP180;55512;50.102;19.958;2022-11-15T15:47:38;98303.40;;;9.84
68510;BMP180;55512;50.102;19.958;2022-11-15T15:50:31;98306.80;;;9.90
68510;BMP180;55512;50.102;19.958;2022-11-15T15:53:00;98302.20;;;9.80
68510;BMP180;55512;50.102;19.958;2022-11-15T15:55:26;98307.20;;;9.80
68510;BMP180;55512;50.102;19.958;2022-11-15T15:57:53;98309.00;;;9.80
68510;BMP180;55512;50.102;19.958;2022-11-15T16:00:20;98306.20;;;9.80
68510;BMP180;55512;50.102;19.958;2022-11-15T16:02:46;98299.40;;;9.78
68510;BMP180;55512;50.102;19.958;2022-11-15T16:05:12;98296.80;;;9.76
68510;BMP180;55512;50.102;19.958;2022-11-15T16:07:39;98298.40;;;9.74
68510;BMP180;55512;50.102;19.958;2022-11-15T16:10:23;98300.20;;;9.74
68510;BMP180;55512;50.102;19.958;2022-11-15T16:12:50;98295.80;;;9.70
68510;BMP180;55512;50.102;19.958;2022-11-15T16:15:18;98298.40;;;9.70
68510;BMP180;55512;50.102;19.958;2022-11-15T16:17:58;98296.20;;;9.70
68510;BMP180;55512;50.102;19.958;2022-11-15T16:20:39;98293.60;;;9.70
68510;BMP180;55512;50.102;19.958;2022-11-15T16:23:11;98289.00;;;9.70
68510;BMP180;55512;50.102;19.958;2022-11-15T16:25:54;98290.60;;;9.70
68510;BMP180;55512;50.102;19.958;2022-11-15T16:28:27;98291.00;;;9.60
68510;BMP180;55512;50.102;19.958;2022-11-15T16:31:09;98293.40;;;9.60
68510;BMP180;55512;50.102;19.958;2022-11-15T16:33:35;98293.20;;;9.60